Time;durP1;ratioP1;P1;durP2;ratioP2;P2;SDS_P1;SDS_P2;PMS_P1;PMS_P2;Temp;Humidity;BMP_temperature;BMP_pressure;BME280_temperature;BME280_humidity;BME280_pressure;Samples;Min_cycle;Max_cycle;Signal;HPM_P1;HPM_P2
2023/07/25 00:01:02;;;;;;;3.53;3.23;;;23.00;98.20;;;;;;5086580;28;20490;-52
2023/07/25 00:03:29;;;;;;;2.17;2.03;;;23.00;98.20;;;;;;5089043;28;20451;-48
2023/07/25 00:05:55;;;;;;;2.60;2.37;;;23.00;98.10;;;;;;5089582;27;20577;-53
2023/07/25 00:08:22;;;;;;;2.60;2.40;;;23.00;98.20;;;;;;5086579;28;20490;-49
2023/07/25 00:10:49;;;;;;;3.40;2.73;;;22.90;98.10;;;;;;5089361;28;20471;-49
2023/07/25 00:13:16;;;;;;;2.67;2.47;;;23.00;98.00;;;;;;5091270;28;20444;-49
2023/07/25 00:15:44;;;;;;;3.10;2.90;;;23.00;98.40;;;;;;5089110;28;21038;-50
2023/07/25 00:18:10;;;;;;;2.70;2.50;;;23.00;98.10;;;;;;5093565;28;20463;-49
2023/07/25 00:20:37;;;;;;;2.50;2.30;;;22.90;98.10;;;;;;5094932;28;20466;-49
2023/07/25 00:23:04;;;;;;;3.10;2.90;;;23.00;98.20;;;;;;5094623;28;20455;-49
2023/07/25 00:25:30;;;;;;;2.57;2.37;;;23.00;98.30;;;;;;5089722;28;20482;-48
2023/07/25 00:27:57;;;;;;;2.50;2.20;;;23.00;98.10;;;;;;5082053;28;20455;-48
2023/07/25 00:30:25;;;;;;;2.43;2.23;;;23.00;98.10;;;;;;5079577;28;20490;-52
2023/07/25 00:32:53;;;;;;;3.40;3.10;;;23.00;98.00;;;;;;5081405;28;20470;-48
2023/07/25 00:35:20;;;;;;;3.50;2.50;;;23.00;98.20;;;;;;5079653;28;21058;-52
2023/07/25 00:37:46;;;;;;;2.73;2.53;;;22.90;98.10;;;;;;5083055;28;20460;-50
2023/07/25 00:40:14;;;;;;;3.03;2.60;;;22.90;98.10;;;;;;5086141;28;20459;-50
2023/07/25 00:42:40;;;;;;;2.60;2.40;;;23.00;98.20;;;;;;5083125;28;20452;-53
2023/07/25 00:45:09;;;;;;;3.57;2.33;;;22.90;98.10;;;;;;5083316;28;20471;-51
2023/07/25 00:47:36;;;;;;;3.47;2.50;;;22.90;98.00;;;;;;5082166;28;20757;-50
2023/07/25 00:50:04;;;;;;;1.80;1.70;;;22.90;98.20;;;;;;5082295;28;20468;-52
2023/07/25 00:52:31;;;;;;;2.40;2.20;;;22.90;98.10;;;;;;5081433;28;20546;-50
2023/07/25 00:54:58;;;;;;;2.47;2.27;;;22.90;98.10;;;;;;5083144;28;20553;-51
2023/07/25 00:57:25;;;;;;;2.13;1.97;;;22.90;98.10;;;;;;5085740;28;20459;-49
2023/07/25 00:59:51;;;;;;;2.80;2.17;;;22.90;98.10;;;;;;5086850;28;20451;-47
2023/07/25 01:02:18;;;;;;;2.30;2.20;;;22.90;98.00;;;;;;5084427;28;20462;-51
2023/07/25 01:04:45;;;;;;;2.33;2.23;;;22.90;98.20;;;;;;5084514;28;20512;-53
2023/07/25 01:07:14;;;;;;;2.63;2.30;;;22.90;98.10;;;;;;5083890;28;20513;-51
2023/07/25 01:09:43;;;;;;;2.50;2.30;;;22.90;98.10;;;;;;5084044;28;20463;-53
2023/07/25 01:12:11;;;;;;;2.93;2.20;;;22.90;98.20;;;;;;5082452;28;20458;-51
2023/07/25 01:14:39;;;;;;;2.20;2.00;;;22.90;98.20;;;;;;5082892;28;20459;-50
2023/07/25 01:17:09;;;;;;;2.43;2.20;;;22.90;98.10;;;;;;5083622;28;20456;-50
2023/07/25 01:19:38;;;;;;;2.40;2.20;;;22.90;98.20;;;;;;5084975;28;20868;-49
2023/07/25 01:22:06;;;;;;;2.40;2.20;;;22.90;98.20;;;;;;5085160;28;20820;-52
2023/07/25 01:24:34;;;;;;;2.50;2.30;;;22.90;98.30;;;;;;5080988;28;20501;-50
2023/07/25 01:27:01;;;;;;;2.40;2.20;;;22.90;98.00;;;;;;5083303;28;20463;-53
2023/07/25 01:29:28;;;;;;;2.97;2.73;;;22.80;98.20;;;;;;5084845;27;20463;-48
2023/07/25 01:31:55;;;;;;;3.03;2.10;;;22.80;98.20;;;;;;5084958;28;20506;-51
2023/07/25 01:34:21;;;;;;;3.57;2.23;;;22.80;98.20;;;;;;5083835;28;20475;-47
2023/07/25 01:36:48;;;;;;;2.40;2.20;;;22.80;98.20;;;;;;5083221;28;20486;-50
2023/07/25 01:39:15;;;;;;;2.33;2.10;;;22.80;98.10;;;;;;5081999;28;21053;-49
2023/07/25 01:41:44;;;;;;;2.07;1.93;;;22.80;98.00;;;;;;5085346;28;20952;-51
2023/07/25 01:44:11;;;;;;;2.30;2.10;;;22.80;98.20;;;;;;5083198;28;21093;-50
2023/07/25 01:46:40;;;;;;;3.77;2.23;;;22.80;98.10;;;;;;5082729;28;20474;-47
2023/07/25 01:49:07;;;;;;;1.90;1.80;;;22.80;98.10;;;;;;5083247;28;20464;-48
2023/07/25 01:51:33;;;;;;;2.17;2.03;;;22.80;98.20;;;;;;5084581;28;20467;-49
2023/07/25 01:54:00;;;;;;;2.70;2.57;;;22.80;98.20;;;;;;5083580;28;20463;-48
2023/07/25 01:56:27;;;;;;;2.40;2.20;;;22.80;98.00;;;;;;5082736;28;20471;-49
2023/07/25 01:58:55;;;;;;;2.30;2.10;;;22.80;98.20;;;;;;5081830;28;20958;-52
2023/07/25 02:01:22;;;;;;;2.70;2.50;;;22.80;98.10;;;;;;5083597;28;20509;-47
2023/07/25 02:03:48;;;;;;;2.90;1.97;;;22.80;98.10;;;;;;5085004;28;20854;-48
2023/07/25 02:06:15;;;;;;;2.70;2.50;;;22.80;97.90;;;;;;5081490;28;20487;-49
2023/07/25 02:08:42;;;;;;;2.63;2.43;;;22.80;97.90;;;;;;5081221;28;20466;-49
2023/07/25 02:11:08;;;;;;;2.60;2.40;;;22.80;97.90;;;;;;5081834;28;20467;-50
2023/07/25 02:13:35;;;;;;;2.57;2.37;;;22.80;97.90;;;;;;5084818;28;20463;-49
2023/07/25 02:16:03;;;;;;;2.30;2.13;;;22.80;97.80;;;;;;5083508;28;20542;-49
2023/07/25 02:18:30;;;;;;;2.13;1.93;;;22.80;97.80;;;;;;5084397;28;20467;-53
2023/07/25 02:20:57;;;;;;;2.70;2.50;;;22.80;97.80;;;;;;5083759;28;20470;-49
2023/07/25 02:23:23;;;;;;;2.43;2.23;;;22.70;97.80;;;;;;5082539;28;20521;-49
2023/07/25 02:25:50;;;;;;;3.23;2.93;;;22.70;97.70;;;;;;5084836;28;20487;-47
2023/07/25 02:28:17;;;;;;;2.60;2.40;;;22.80;97.80;;;;;;5083155;28;20455;-48
2023/07/25 02:30:45;;;;;;;2.60;2.30;;;22.70;97.80;;;;;;5082824;28;20963;-51
2023/07/25 02:33:13;;;;;;;2.50;2.30;;;22.80;97.80;;;;;;5079896;28;20467;-49
2023/07/25 02:35:40;;;;;;;1.90;1.70;;;22.80;97.80;;;;;;5084091;28;20474;-49
2023/07/25 02:38:06;;;;;;;2.70;2.50;;;22.80;97.80;;;;;;5084415;28;20471;-50
2023/07/25 02:40:33;;;;;;;2.33;2.03;;;22.70;97.80;;;;;;5087242;28;21397;-51
2023/07/25 02:43:00;;;;;;;2.40;2.20;;;22.70;97.70;;;;;;5085958;28;20513;-52
2023/07/25 02:45:27;;;;;;;2.33;2.13;;;22.70;97.70;;;;;;5084831;28;20471;-47
2023/07/25 02:47:53;;;;;;;2.17;1.97;;;22.70;97.70;;;;;;5084678;28;20977;-50
2023/07/25 02:50:21;;;;;;;2.40;2.17;;;22.70;97.70;;;;;;5086325;28;20448;-52
2023/07/25 02:52:48;;;;;;;2.87;2.43;;;22.70;97.60;;;;;;5085666;28;20467;-50
2023/07/25 02:55:15;;;;;;;2.40;2.20;;;22.70;97.60;;;;;;5085269;28;20721;-50
2023/07/25 02:57:41;;;;;;;2.40;2.10;;;22.70;97.60;;;;;;5083232;28;21015;-51
2023/07/25 03:00:09;;;;;;;3.23;1.80;;;22.70;97.60;;;;;;5086037;28;20466;-50
2023/07/25 03:02:36;;;;;;;2.60;2.40;;;22.70;97.60;;;;;;5088881;28;20459;-49
2023/07/25 03:05:03;;;;;;;2.27;2.07;;;22.70;97.60;;;;;;5085216;28;21191;-51
2023/07/25 03:07:31;;;;;;;1.77;1.67;;;22.70;97.60;;;;;;5085411;28;20455;-50
2023/07/25 03:09:57;;;;;;;2.07;1.97;;;22.70;97.60;;;;;;5083414;28;20462;-52
2023/07/25 03:12:24;;;;;;;2.57;2.37;;;22.70;97.50;;;;;;5088555;28;20448;-50
2023/07/25 03:14:51;;;;;;;2.20;2.00;;;22.70;97.60;;;;;;5085819;28;20551;-49
2023/07/25 03:17:18;;;;;;;2.10;2.00;;;22.70;97.50;;;;;;5087105;28;20542;-50
2023/07/25 03:19:45;;;;;;;1.93;1.73;;;22.70;97.50;;;;;;5089145;28;20456;-48
2023/07/25 03:22:11;;;;;;;2.17;1.80;;;22.70;97.50;;;;;;5088176;28;20482;-53
2023/07/25 03:24:39;;;;;;;2.63;1.93;;;22.70;97.60;;;;;;5088106;28;20466;-50
2023/07/25 03:27:07;;;;;;;2.17;2.07;;;22.70;97.60;;;;;;5088653;28;20478;-49
2023/07/25 03:29:33;;;;;;;2.53;2.20;;;22.70;97.60;;;;;;5085726;28;20475;-51
2023/07/25 03:32:00;;;;;;;2.17;1.97;;;22.70;97.70;;;;;;5088975;28;20809;-51
2023/07/25 03:34:27;;;;;;;1.77;1.67;;;22.70;97.70;;;;;;5088018;28;20451;-48
2023/07/25 03:36:53;;;;;;;2.27;1.90;;;22.70;97.70;;;;;;5081393;28;20471;-53
2023/07/25 03:39:20;;;;;;;3.87;2.00;;;22.70;97.70;;;;;;5083620;28;20464;-51
2023/07/25 03:41:48;;;;;;;2.87;2.00;;;22.60;97.60;;;;;;5086653;28;20455;-48
2023/07/25 03:44:17;;;;;;;2.40;1.80;;;22.60;97.60;;;;;;5088506;28;20464;-54
2023/07/25 03:46:44;;;;;;;2.30;1.80;;;22.60;97.60;;;;;;5093628;28;20925;-49
2023/07/25 03:49:11;;;;;;;2.00;1.80;;;22.60;97.60;;;;;;5088824;28;20460;-53
2023/07/25 03:51:38;;;;;;;2.37;2.17;;;22.60;98.10;;;;;;5090436;28;20473;-52
2023/07/25 03:54:04;;;;;;;2.23;1.70;;;22.60;97.70;;;;;;5093467;28;20451;-50
2023/07/25 03:56:31;;;;;;;2.27;2.07;;;22.60;97.70;;;;;;5095666;28;20872;-52
2023/07/25 03:58:59;;;;;;;3.43;2.43;;;22.60;97.70;;;;;;5084770;28;20455;-51
2023/07/25 04:01:26;;;;;;;1.90;1.70;;;22.60;97.60;;;;;;5088726;28;20459;-52
2023/07/25 04:03:53;;;;;;;2.13;1.93;;;22.60;98.10;;;;;;5090171;28;20435;-48
2023/07/25 04:06:20;;;;;;;2.50;2.30;;;22.60;97.80;;;;;;5082799;28;20912;-52
2023/07/25 04:08:47;;;;;;;2.03;1.83;;;22.60;97.80;;;;;;5081135;28;20475;-49
2023/07/25 04:11:14;;;;;;;2.80;1.70;;;22.60;97.90;;;;;;5083583;28;20463;-52
2023/07/25 04:13:41;;;;;;;2.33;2.07;;;22.60;97.70;;;;;;5088082;28;20451;-50
2023/07/25 04:16:09;;;;;;;2.00;1.80;;;22.60;97.80;;;;;;5086813;28;20467;-48
2023/07/25 04:18:36;;;;;;;1.77;1.67;;;22.60;97.90;;;;;;5092089;28;20459;-49
2023/07/25 04:21:02;;;;;;;2.30;2.10;;;22.60;97.90;;;;;;5084794;28;20451;-49
2023/07/25 04:23:29;;;;;;;2.13;1.93;;;22.60;97.90;;;;;;5086346;28;20818;-48
2023/07/25 04:25:56;;;;;;;1.70;1.60;;;22.60;97.90;;;;;;5082985;28;20483;-52
2023/07/25 04:28:22;;;;;;;2.23;2.00;;;22.60;97.80;;;;;;5083560;28;20477;-53
2023/07/25 04:30:49;;;;;;;2.23;2.03;;;22.60;97.80;;;;;;5085491;28;20670;-49
2023/07/25 04:33:17;;;;;;;1.83;1.73;;;22.60;97.90;;;;;;5090652;28;20465;-50
2023/07/25 04:35:45;;;;;;;2.30;2.03;;;22.60;97.90;;;;;;5086337;28;20482;-49
2023/07/25 04:38:12;;;;;;;2.33;2.13;;;22.60;97.80;;;;;;5093890;28;20486;-49
2023/07/25 04:40:38;;;;;;;1.93;1.80;;;22.60;97.90;;;;;;5091262;28;21424;-51
2023/07/25 04:43:05;;;;;;;2.47;2.27;;;22.60;97.80;;;;;;5093203;28;20474;-52
2023/07/25 04:45:32;;;;;;;1.97;1.87;;;22.60;97.90;;;;;;5090901;28;20463;-49
2023/07/25 04:47:58;;;;;;;2.23;2.03;;;22.60;97.80;;;;;;5086596;28;20540;-54
2023/07/25 04:50:27;;;;;;;2.10;1.90;;;22.60;97.80;;;;;;5090435;28;20455;-51
2023/07/25 04:52:53;;;;;;;2.00;1.80;;;22.50;97.80;;;;;;5088024;28;20466;-48
2023/07/25 04:55:20;;;;;;;2.17;1.97;;;22.50;97.80;;;;;;5086558;28;20962;-47
2023/07/25 04:57:47;;;;;;;3.00;1.53;;;22.50;97.70;;;;;;5086571;28;20475;-51
2023/07/25 05:00:14;;;;;;;2.80;2.60;;;22.50;97.70;;;;;;5086809;28;20455;-50
2023/07/25 05:02:41;;;;;;;2.77;1.70;;;22.50;97.80;;;;;;5088041;28;20455;-49
2023/07/25 05:05:08;;;;;;;2.43;1.73;;;22.50;97.80;;;;;;5090375;28;21372;-48
2023/07/25 05:07:36;;;;;;;2.07;1.87;;;22.50;97.80;;;;;;5084342;28;20538;-50
2023/07/25 05:10:03;;;;;;;2.07;1.93;;;22.50;97.80;;;;;;5086621;28;20467;-49
2023/07/25 05:12:30;;;;;;;1.90;1.80;;;22.50;97.90;;;;;;5086138;28;20455;-49
2023/07/25 05:14:57;;;;;;;3.50;1.73;;;22.50;97.80;;;;;;5085827;28;21640;-50
2023/07/25 05:17:24;;;;;;;2.53;2.33;;;22.50;97.80;;;;;;5083612;28;20463;-51
2023/07/25 05:19:50;;;;;;;1.87;1.77;;;22.50;97.80;;;;;;5089062;28;20471;-50
2023/07/25 05:22:17;;;;;;;2.10;1.90;;;22.50;97.80;;;;;;5087966;28;20456;-49
2023/07/25 05:24:45;;;;;;;2.17;2.07;;;22.50;97.80;;;;;;5088510;28;20464;-49
2023/07/25 05:27:12;;;;;;;2.43;1.97;;;22.50;97.70;;;;;;5090788;28;20850;-51
2023/07/25 05:29:39;;;;;;;1.90;1.67;;;22.50;97.70;;;;;;5092562;28;20442;-50
2023/07/25 05:32:07;;;;;;;1.70;1.60;;;22.50;97.70;;;;;;5091356;28;21013;-52
2023/07/25 05:34:33;;;;;;;2.27;1.70;;;22.50;97.70;;;;;;5090311;28;20455;-51
2023/07/25 05:37:00;;;;;;;1.90;1.70;;;22.50;97.60;;;;;;5089867;28;21662;-53
2023/07/25 05:39:27;;;;;;;1.80;1.70;;;22.50;97.60;;;;;;5087470;28;20559;-50
2023/07/25 05:41:55;;;;;;;1.70;1.60;;;22.50;97.60;;;;;;5090400;28;20466;-50
2023/07/25 05:44:21;;;;;;;1.70;1.60;;;22.50;97.60;;;;;;5094154;28;20447;-51
2023/07/25 05:46:48;;;;;;;1.73;1.63;;;22.50;97.60;;;;;;5091035;28;20483;-51
2023/07/25 05:49:15;;;;;;;2.33;1.90;;;22.50;97.50;;;;;;5089649;28;21094;-47
2023/07/25 05:51:41;;;;;;;2.60;1.73;;;22.50;97.50;;;;;;5091625;28;20583;-49
2023/07/25 05:54:08;;;;;;;1.93;1.70;;;22.50;97.50;;;;;;5087524;28;20462;-49
2023/07/25 05:56:35;;;;;;;1.80;1.70;;;22.50;97.60;;;;;;5093823;28;20451;-49
2023/07/25 05:59:03;;;;;;;1.93;1.83;;;22.50;97.60;;;;;;5090040;28;20475;-52
2023/07/25 06:01:30;;;;;;;2.73;2.50;;;22.50;97.60;;;;;;5087992;28;20466;-51
2023/07/25 06:03:56;;;;;;;2.63;1.80;;;22.50;97.70;;;;;;5089727;28;20837;-48
2023/07/25 06:06:23;;;;;;;1.60;1.50;;;22.50;97.30;;;;;;5091984;28;20481;-49
2023/07/25 06:08:50;;;;;;;1.90;1.73;;;22.50;97.50;;;;;;5088984;28;20463;-48
2023/07/25 06:11:21;;;;;;;1.90;1.70;;;22.60;97.50;;;;;;5087268;28;20447;-48
2023/07/25 06:13:49;;;;;;;2.97;2.30;;;22.60;97.40;;;;;;5090951;28;20546;-50
2023/07/25 06:16:17;;;;;;;3.23;1.60;;;22.50;97.20;;;;;;5091174;28;20751;-52
2023/07/25 06:18:43;;;;;;;3.20;1.90;;;22.60;97.20;;;;;;5091926;28;20487;-51
2023/07/25 06:21:10;;;;;;;4.47;2.10;;;22.60;97.20;;;;;;5090490;28;20466;-49
2023/07/25 06:23:37;;;;;;;1.50;1.40;;;22.60;97.30;;;;;;5082171;28;20463;-50
2023/07/25 06:26:04;;;;;;;2.50;1.63;;;22.60;97.20;;;;;;5085661;28;20513;-50
2023/07/25 06:28:31;;;;;;;3.33;1.80;;;22.60;97.20;;;;;;5089618;28;20458;-51
2023/07/25 06:30:58;;;;;;;1.60;1.50;;;22.60;97.10;;;;;;5089885;28;20576;-49
2023/07/25 06:33:26;;;;;;;1.93;1.60;;;22.60;97.00;;;;;;5086344;28;20460;-48
2023/07/25 06:35:53;;;;;;;2.03;1.73;;;22.60;97.10;;;;;;5096278;28;20462;-49
2023/07/25 06:38:19;;;;;;;1.70;1.50;;;22.60;97.00;;;;;;5088586;28;20476;-50
2023/07/25 06:40:46;;;;;;;4.70;2.03;;;22.60;96.90;;;;;;5088572;28;20829;-50
2023/07/25 06:43:13;;;;;;;2.70;1.40;;;22.60;96.50;;;;;;5090500;28;20447;-52
2023/07/25 06:45:40;;;;;;;2.53;1.83;;;22.60;96.00;;;;;;5092374;28;20457;-51
2023/07/25 06:48:07;;;;;;;2.73;1.90;;;22.60;96.20;;;;;;5091520;28;20803;-50
2023/07/25 06:50:35;;;;;;;2.80;1.70;;;22.60;96.10;;;;;;5086530;28;20467;-52
2023/07/25 06:53:01;;;;;;;2.47;2.03;;;22.60;96.50;;;;;;5085111;28;20494;-49
2023/07/25 06:55:28;;;;;;;3.27;1.70;;;22.60;96.20;;;;;;5084766;28;20517;-51
2023/07/25 06:57:55;;;;;;;2.87;1.50;;;22.60;96.00;;;;;;5091455;28;20455;-52
2023/07/25 07:00:22;;;;;;;3.57;1.70;;;22.60;95.60;;;;;;5084919;28;20467;-50
2023/07/25 07:02:48;;;;;;;2.67;1.63;;;22.60;95.60;;;;;;5086040;28;20551;-50
2023/07/25 07:05:15;;;;;;;5.33;1.90;;;22.60;95.60;;;;;;5087664;28;21059;-49
2023/07/25 07:07:43;;;;;;;4.67;1.83;;;22.60;95.80;;;;;;5085214;28;20853;-52
2023/07/25 07:10:10;;;;;;;5.40;1.87;;;22.60;95.80;;;;;;5086586;28;20466;-48
2023/07/25 07:12:38;;;;;;;5.57;1.90;;;22.60;96.20;;;;;;5082300;28;20463;-49
2023/07/25 07:15:05;;;;;;;3.23;1.77;;;22.60;96.40;;;;;;5085927;28;20545;-53
2023/07/25 07:17:32;;;;;;;3.43;1.60;;;22.60;95.70;;;;;;5087550;28;20451;-48
2023/07/25 07:20:00;;;;;;;3.07;1.60;;;22.60;95.70;;;;;;5086288;28;20576;-51
2023/07/25 07:22:27;;;;;;;2.67;1.80;;;22.60;95.60;;;;;;5083956;28;20455;-48
2023/07/25 07:24:56;;;;;;;2.43;2.03;;;22.60;95.60;;;;;;5085613;28;20456;-52
2023/07/25 07:27:23;;;;;;;3.40;2.13;;;22.60;94.80;;;;;;5079121;28;20519;-52
2023/07/25 07:29:50;;;;;;;5.20;1.80;;;22.60;94.80;;;;;;5086391;28;21461;-53
2023/07/25 07:32:16;;;;;;;3.53;1.77;;;22.60;95.10;;;;;;5087179;28;20463;-52
2023/07/25 07:34:43;;;;;;;3.97;1.83;;;22.60;95.00;;;;;;5084511;28;20462;-47
2023/07/25 07:37:10;;;;;;;3.40;1.67;;;22.60;94.90;;;;;;5086614;28;20477;-47
2023/07/25 07:39:37;;;;;;;3.53;1.70;;;22.60;94.80;;;;;;5085072;28;20470;-48
2023/07/25 07:42:05;;;;;;;2.60;1.43;;;22.60;94.40;;;;;;5086320;28;21240;-54
2023/07/25 07:44:32;;;;;;;6.07;3.10;;;22.60;94.00;;;;;;5082940;28;20455;-53
2023/07/25 07:46:59;;;;;;;3.10;1.73;;;22.60;93.70;;;;;;5081011;28;21065;-51
2023/07/25 07:49:25;;;;;;;4.93;2.17;;;22.60;93.10;;;;;;5086859;28;20962;-51
2023/07/25 07:51:53;;;;;;;4.10;1.67;;;22.50;92.90;;;;;;5089629;28;20537;-52
2023/07/25 07:54:19;;;;;;;7.00;2.23;;;22.50;92.70;;;;;;5085322;28;20486;-51
2023/07/25 07:56:46;;;;;;;4.00;2.40;;;22.50;92.30;;;;;;5087026;28;20463;-50
2023/07/25 07:59:14;;;;;;;3.93;1.53;;;22.50;92.30;;;;;;5087383;28;20966;-50
2023/07/25 08:01:41;;;;;;;5.87;2.63;;;22.50;92.40;;;;;;5086674;28;20968;-50
2023/07/25 08:04:08;;;;;;;3.30;1.97;;;22.50;92.50;;;;;;5084325;28;20455;-49
2023/07/25 08:06:34;;;;;;;7.33;2.70;;;22.50;92.50;;;;;;5090625;28;20854;-52
2023/07/25 08:09:01;;;;;;;3.03;1.70;;;22.60;92.70;;;;;;5092565;28;20447;-52
2023/07/25 08:11:28;;;;;;;5.20;1.50;;;22.60;93.00;;;;;;5090944;28;20468;-49
2023/07/25 08:13:54;;;;;;;4.10;1.80;;;22.60;92.90;;;;;;5087976;28;20826;-53
2023/07/25 08:16:22;;;;;;;2.90;1.63;;;22.60;92.60;;;;;;5089545;28;20454;-52
2023/07/25 08:18:49;;;;;;;7.40;1.83;;;22.60;92.60;;;;;;5092818;28;20443;-48
2023/07/25 08:21:16;;;;;;;2.67;1.60;;;22.60;92.70;;;;;;5092474;28;20448;-49
2023/07/25 08:23:42;;;;;;;4.37;2.17;;;22.60;92.80;;;;;;5091294;28;20450;-51
2023/07/25 08:26:09;;;;;;;5.20;2.00;;;22.60;92.80;;;;;;5090379;28;20478;-51
2023/07/25 08:28:36;;;;;;;5.20;1.87;;;22.60;92.60;;;;;;5091264;28;20487;-50
2023/07/25 08:31:05;;;;;;;4.53;1.83;;;22.60;92.50;;;;;;5092325;28;20443;-53
2023/07/25 08:33:34;;;;;;;4.80;2.27;;;22.60;92.50;;;;;;5088671;28;20506;-52
2023/07/25 08:36:01;;;;;;;3.40;1.63;;;22.60;92.70;;;;;;5090911;28;20478;-52
2023/07/25 08:38:28;;;;;;;4.67;2.40;;;22.60;92.50;;;;;;5087549;28;20459;-51
2023/07/25 08:41:02;;;;;;;3.20;1.87;;;22.60;92.60;;;;;;5085774;27;20469;-54
2023/07/25 08:43:29;;;;;;;3.93;1.87;;;22.60;92.50;;;;;;5090309;28;20572;-50
2023/07/25 08:45:58;;;;;;;2.50;1.60;;;22.60;91.40;;;;;;5091675;28;20550;-50
2023/07/25 08:48:26;;;;;;;3.00;1.50;;;22.50;91.10;;;;;;5090440;28;20573;-52
2023/07/25 08:50:58;;;;;;;2.90;2.10;;;22.50;91.40;;;;;;5091793;28;20975;-48
2023/07/25 08:53:26;;;;;;;2.70;2.00;;;22.50;92.20;;;;;;5088421;28;20471;-50
2023/07/25 08:55:54;;;;;;;4.60;1.50;;;22.50;92.70;;;;;;5087578;28;20501;-50
2023/07/25 08:58:21;;;;;;;4.00;2.07;;;22.50;92.20;;;;;;5090420;28;20978;-49
2023/07/25 09:00:49;;;;;;;3.70;1.30;;;22.50;92.40;;;;;;5089370;28;20463;-49
2023/07/25 09:03:16;;;;;;;6.00;2.13;;;22.50;92.60;;;;;;5085387;28;20462;-49
2023/07/25 09:05:43;;;;;;;3.63;2.03;;;22.50;92.30;;;;;;5079456;28;20463;-48
2023/07/25 09:08:11;;;;;;;2.77;1.70;;;22.50;92.50;;;;;;5080617;28;21009;-50
2023/07/25 09:10:39;;;;;;;3.43;1.70;;;22.50;92.30;;;;;;5082332;28;20463;-51
2023/07/25 09:13:05;;;;;;;4.07;1.57;;;22.50;92.50;;;;;;5084079;28;20462;-48
2023/07/25 09:15:32;;;;;;;4.23;1.87;;;22.50;92.20;;;;;;5084044;28;20455;-49
2023/07/25 09:17:59;;;;;;;8.87;2.03;;;22.50;92.00;;;;;;5084467;28;20783;-47
2023/07/25 09:20:26;;;;;;;1.93;1.30;;;22.50;91.90;;;;;;5085273;28;20446;-49
2023/07/25 09:22:52;;;;;;;2.10;1.90;;;22.50;91.80;;;;;;5081188;28;20462;-49
2023/07/25 09:25:20;;;;;;;3.27;1.70;;;22.50;91.60;;;;;;5080863;28;20459;-49
2023/07/25 09:27:47;;;;;;;2.90;1.57;;;22.50;91.70;;;;;;5080823;28;20867;-49
2023/07/25 09:30:15;;;;;;;4.87;2.20;;;22.50;91.60;;;;;;5080962;28;20463;-50
2023/07/25 09:32:46;;;;;;;2.57;1.50;;;22.50;91.50;;;;;;5084091;28;20458;-48
2023/07/25 09:35:13;;;;;;;3.17;2.10;;;22.50;91.40;;;;;;5079496;28;20558;-49
2023/07/25 09:37:39;;;;;;;4.43;1.50;;;22.40;91.60;;;;;;5075684;28;20463;-48
2023/07/25 09:40:10;;;;;;;5.43;1.93;;;22.50;91.30;;;;;;5079822;28;20459;-48
2023/07/25 09:42:42;;;;;;;5.53;2.20;;;22.50;91.10;;;;;;5087808;28;20543;-50
2023/07/25 09:45:09;;;;;;;8.00;2.10;;;22.40;91.20;;;;;;5086918;28;20558;-48
2023/07/25 09:47:37;;;;;;;3.50;1.83;;;22.40;91.10;;;;;;5090450;28;20471;-49
2023/07/25 09:50:05;;;;;;;6.10;2.00;;;22.40;91.10;;;;;;5089925;28;20491;-47
2023/07/25 09:52:39;;;;;;;4.23;2.07;;;22.40;91.20;;;;;;5087931;28;20903;-48
2023/07/25 09:55:07;;;;;;;3.57;1.90;;;22.40;91.20;;;;;;5084151;28;20578;-51
2023/07/25 09:57:34;;;;;;;3.70;1.73;;;22.40;91.30;;;;;;5083153;28;20538;-51
2023/07/25 10:00:05;;;;;;;4.20;2.50;;;22.40;91.40;;;;;;5079350;28;20539;-53
2023/07/25 10:02:32;;;;;;;6.40;1.67;;;22.50;91.50;;;;;;5083365;28;20455;-57
2023/07/25 10:05:00;;;;;;;3.13;1.77;;;22.50;91.70;;;;;;5082648;28;20829;-56
2023/07/25 10:07:27;;;;;;;2.77;1.67;;;22.40;91.70;;;;;;5080397;28;21020;-53
2023/07/25 10:09:55;;;;;;;3.47;1.90;;;22.50;91.90;;;;;;5075247;28;20905;-51
2023/07/25 10:12:23;;;;;;;3.30;1.50;;;22.50;91.90;;;;;;5080240;28;20466;-50
2023/07/25 10:14:50;;;;;;;3.60;1.43;;;22.50;91.70;;;;;;5088594;28;20799;-52
2023/07/25 10:17:18;;;;;;;3.73;2.07;;;22.50;91.90;;;;;;5088328;28;20757;-52
2023/07/25 10:19:49;;;;;;;4.73;1.47;;;22.50;92.00;;;;;;5080111;28;20455;-48
2023/07/25 10:22:16;;;;;;;5.03;2.23;;;22.50;92.00;;;;;;5084595;28;20455;-51
2023/07/25 10:24:43;;;;;;;3.70;1.40;;;22.60;91.90;;;;;;5079224;28;20462;-51
2023/07/25 10:27:10;;;;;;;4.77;2.00;;;22.60;91.80;;;;;;5083482;28;20455;-51
2023/07/25 10:29:41;;;;;;;3.90;2.10;;;22.60;91.50;;;;;;5078087;28;20479;-50
2023/07/25 10:32:09;;;;;;;4.50;1.33;;;22.60;91.40;;;;;;5074883;28;20584;-53
2023/07/25 10:34:51;;;;;;;3.07;1.60;;;22.60;91.20;;;;;;5080351;28;20451;-50
2023/07/25 10:37:41;;;;;;;5.70;1.70;;;22.60;91.40;;;;;;5079780;28;20602;-52
2023/07/25 10:40:13;;;;;;;20.63;11.00;;;22.60;91.40;;;;;;5080073;28;20459;-49
2023/07/25 10:42:51;;;;;;;102.33;59.47;;;22.60;91.40;;;;;;5087265;28;21001;-50
2023/07/25 10:45:40;;;;;;;84.37;54.43;;;22.70;91.10;;;;;;5082602;28;20498;-52
2023/07/25 10:48:30;;;;;;;120.83;67.67;;;22.70;90.60;;;;;;5077129;28;20475;-57
2023/07/25 10:50:59;;;;;;;131.67;73.20;;;22.60;89.90;;;;;;5082170;28;20450;-53
2023/07/25 10:53:27;;;;;;;139.13;73.60;;;22.60;89.50;;;;;;5085676;28;20459;-51
2023/07/25 10:56:16;;;;;;;122.23;64.57;;;22.60;89.40;;;;;;5087737;28;20973;-62
2023/07/25 10:59:06;;;;;;;84.20;43.47;;;22.70;89.20;;;;;;5079316;28;20471;-58
2023/07/25 11:01:36;;;;;;;91.17;49.93;;;22.60;89.10;;;;;;5077024;28;20975;-55
2023/07/25 11:04:40;;;;;;;78.67;40.77;;;22.70;89.50;;;;;;5084048;28;20459;-51
2023/07/25 11:07:12;;;;;;;57.40;31.80;;;22.70;89.80;;;;;;5084555;28;20474;-50
2023/07/25 11:09:41;;;;;;;48.13;25.63;;;22.70;89.40;;;;;;5084799;28;20494;-53
2023/07/25 11:12:09;;;;;;;35.90;18.13;;;22.60;89.80;;;;;;5080707;28;20455;-54
2023/07/25 11:14:41;;;;;;;28.70;16.00;;;22.70;89.30;;;;;;5069520;27;20578;-49
2023/07/25 11:17:08;;;;;;;27.50;15.07;;;22.70;88.90;;;;;;5081814;28;20482;-50
2023/07/25 11:19:35;;;;;;;24.50;14.20;;;22.70;89.00;;;;;;5083393;28;20470;-54
2023/07/25 11:22:10;;;;;;;26.30;14.07;;;22.70;89.10;;;;;;5088296;28;21190;-52
2023/07/25 11:24:43;;;;;;;13.33;6.30;;;22.70;88.60;;;;;;5085271;28;21447;-54
2023/07/25 11:27:10;;;;;;;13.40;8.20;;;22.80;87.90;;;;;;5085737;28;20455;-49
2023/07/25 11:29:36;;;;;;;14.83;6.97;;;22.70;88.10;;;;;;5078567;28;20474;-54
2023/07/25 11:32:03;;;;;;;17.80;7.70;;;22.70;88.10;;;;;;5081030;28;20456;-48
2023/07/25 11:34:30;;;;;;;11.47;6.17;;;22.80;88.20;;;;;;5084073;28;20564;-55
2023/07/25 11:36:57;;;;;;;8.83;4.70;;;22.80;87.90;;;;;;5087355;28;20467;-60
2023/07/25 11:39:25;;;;;;;8.70;4.47;;;22.80;87.50;;;;;;5080168;28;20463;-50
2023/07/25 11:41:52;;;;;;;7.90;4.27;;;22.80;87.00;;;;;;5084610;28;20484;-53
2023/07/25 11:44:20;;;;;;;6.53;3.07;;;22.80;85.60;;;;;;5082724;28;20470;-56
2023/07/25 11:46:50;;;;;;;4.50;2.30;;;22.80;85.40;;;;;;5080657;28;20458;-53
2023/07/25 11:49:17;;;;;;;4.87;2.07;;;22.80;84.90;;;;;;5077703;28;20486;-53
2023/07/25 11:51:45;;;;;;;5.80;2.40;;;22.80;84.80;;;;;;5080063;28;20455;-50
2023/07/25 11:54:12;;;;;;;5.33;2.30;;;22.80;83.70;;;;;;5085084;28;20466;-53
2023/07/25 11:56:40;;;;;;;5.13;2.60;;;22.80;83.30;;;;;;5074892;28;20976;-56
2023/07/25 11:59:12;;;;;;;3.67;1.93;;;22.80;82.90;;;;;;5085916;28;20471;-51
2023/07/25 12:01:38;;;;;;;4.60;2.40;;;22.80;82.80;;;;;;5080618;28;20500;-48
2023/07/25 12:04:13;;;;;;;3.07;1.80;;;22.80;82.30;;;;;;5078840;28;21817;-56
2023/07/25 12:06:40;;;;;;;2.60;1.63;;;22.80;82.30;;;;;;5083624;28;20465;-52
2023/07/25 12:09:07;;;;;;;2.93;2.00;;;22.90;82.20;;;;;;5084274;28;20483;-47
2023/07/25 12:11:43;;;;;;;5.30;2.23;;;22.90;82.40;;;;;;5084086;28;20720;-52
2023/07/25 12:14:11;;;;;;;2.50;1.80;;;22.90;81.70;;;;;;5082944;28;20451;-46
2023/07/25 12:16:43;;;;;;;4.17;1.90;;;22.90;81.50;;;;;;5088105;28;20463;-50
2023/07/25 12:19:11;;;;;;;4.80;1.60;;;22.90;80.80;;;;;;5088897;28;20999;-50
2023/07/25 12:21:39;;;;;;;3.00;1.67;;;22.90;80.70;;;;;;5088846;28;20512;-49
2023/07/25 12:24:08;;;;;;;2.23;1.63;;;22.90;80.90;;;;;;5085226;28;20840;-52
2023/07/25 12:26:44;;;;;;;6.40;1.67;;;22.90;81.00;;;;;;5088760;28;20961;-47
2023/07/25 12:29:14;;;;;;;5.33;1.60;;;22.90;80.70;;;;;;5085797;28;20473;-55
2023/07/25 12:31:41;;;;;;;2.53;1.70;;;22.90;81.00;;;;;;5073636;28;21919;-52
2023/07/25 12:34:07;;;;;;;4.70;1.60;;;22.90;80.40;;;;;;5087008;28;20463;-50
2023/07/25 12:36:34;;;;;;;4.87;1.53;;;22.90;80.60;;;;;;5085091;28;20764;-45
2023/07/25 12:39:02;;;;;;;3.43;1.70;;;23.00;81.20;;;;;;5087974;28;20471;-45
2023/07/25 12:41:29;;;;;;;3.37;1.67;;;23.00;80.90;;;;;;5083952;28;20451;-51
2023/07/25 12:43:57;;;;;;;8.33;1.43;;;23.00;80.20;;;;;;5083451;28;21071;-50
2023/07/25 12:46:24;;;;;;;5.23;1.53;;;23.00;80.70;;;;;;5078533;28;20545;-46
2023/07/25 12:48:51;;;;;;;4.10;1.40;;;23.00;79.30;;;;;;5080968;28;20496;-49